createdAt,value
2022-08-24T00:02:03.693Z,97627.82
2022-08-24T00:04:32.902Z,97635.04
2022-08-24T00:07:02.452Z,97635.02
2022-08-24T00:09:32.714Z,97635.42
2022-08-24T00:12:00.979Z,97633.48
2022-08-24T00:14:30.061Z,97635.80
2022-08-24T00:16:59.646Z,97637.50
2022-08-24T00:19:28.829Z,97636.80
2022-08-24T00:21:56.869Z,97642.80
2022-08-24T00:24:24.891Z,97645.30
2022-08-24T00:26:54.105Z,97647.30
2022-08-24T00:29:23.787Z,97647.10
2022-08-24T00:31:51.928Z,97652.25
2022-08-24T00:34:20.100Z,97649.75
2022-08-24T00:36:48.117Z,97647.41
2022-08-24T00:39:16.660Z,97651.73
2022-08-24T00:41:47.538Z,97648.63
2022-08-24T00:44:16.974Z,97650.27
2022-08-24T00:46:53.347Z,97652.41
2022-08-24T00:49:42.423Z,97652.50
2022-08-24T00:52:34.856Z,97653.63
2022-08-24T00:55:10.152Z,97653.34
2022-08-24T00:57:41.804Z,97648.30
2022-08-24T01:00:16.441Z,97644.65
2022-08-24T01:02:49.127Z,97641.68
2022-08-24T01:05:18.038Z,97645.16
2022-08-24T01:07:50.806Z,97646.96
2022-08-24T01:10:25.199Z,97643.92
2022-08-24T01:13:00.616Z,97641.48
2022-08-24T01:15:31.571Z,97641.52
2022-08-24T01:18:19.626Z,97640.16
2022-08-24T01:20:59.805Z,97642.06
2022-08-24T01:23:44.916Z,97645.02
2022-08-24T01:26:18.564Z,97645.16
2022-08-24T01:28:51.073Z,97644.39
2022-08-24T01:31:23.195Z,97639.91
2022-08-24T01:33:54.079Z,97638.38
2022-08-24T01:36:51.399Z,97637.55
2022-08-24T01:39:27.051Z,97634.48
2022-08-24T01:41:56.143Z,97628.09
2022-08-24T01:44:26.036Z,97623.03
2022-08-24T01:46:56.275Z,97614.86
2022-08-24T01:49:28.284Z,97612.55
2022-08-24T01:51:57.637Z,97606.23
2022-08-24T01:54:26.418Z,97602.68
2022-08-24T01:56:55.319Z,97600.39
2022-08-24T01:59:24.033Z,97597.64
2022-08-24T02:02:16.536Z,97597.88
2022-08-24T02:04:44.559Z,97590.46
2022-08-24T02:07:14.227Z,97590.66
2022-08-24T02:09:42.532Z,97582.43
2022-08-24T02:12:11.244Z,97573.51
2022-08-24T02:14:39.407Z,97569.22
2022-08-24T02:17:09.049Z,97564.74
2022-08-24T02:19:37.783Z,97564.44
2022-08-24T02:22:08.187Z,97565.62
2022-08-24T02:24:38.778Z,97560.86
2022-08-24T02:27:07.252Z,97553.69
2022-08-24T02:29:35.929Z,97554.61
2022-08-24T02:32:06.031Z,97553.42
2022-08-24T02:34:34.316Z,97547.86
2022-08-24T02:37:02.325Z,97547.75
2022-08-24T02:39:30.466Z,97546.54
2022-08-24T02:42:00.990Z,97542.49
2022-08-24T02:44:29.568Z,97537.98
2022-08-24T02:46:58.001Z,97537.59
2022-08-24T02:49:26.389Z,97539.52
2022-08-24T02:51:55.787Z,97543.83
2022-08-24T02:54:23.847Z,97545.79
2022-08-24T02:56:54.420Z,97544.48
2022-08-24T02:59:23.284Z,97545.83
2022-08-24T03:01:52.135Z,97554.63
2022-08-24T03:04:22.094Z,97558.44
2022-08-24T03:06:50.128Z,97559.23
2022-08-24T03:09:18.935Z,97564.94
2022-08-24T03:11:47.068Z,97572.05
2022-08-24T03:14:18.662Z,97575.36
2022-08-24T03:16:46.939Z,97579.15
2022-08-24T03:19:15.743Z,97579.34
2022-08-24T03:21:44.207Z,97578.64
2022-08-24T03:24:12.906Z,97578.88
2022-08-24T03:26:44.080Z,97579.60
2022-08-24T03:29:15.824Z,97584.42
2022-08-24T03:31:45.314Z,97584.07
2022-08-24T03:34:13.761Z,97582.64
2022-08-24T03:36:46.724Z,97588.10
2022-08-24T03:39:17.107Z,97587.23
2022-08-24T03:41:45.453Z,97587.14
2022-08-24T03:44:13.378Z,97594.20
2022-08-24T03:46:42.037Z,97598.04
2022-08-24T03:49:10.285Z,97598.81
2022-08-24T03:51:39.402Z,97605.31
2022-08-24T03:54:09.682Z,97609.55
2022-08-24T03:56:38.817Z,97613.05
2022-08-24T03:59:09.347Z,97619.71
2022-08-24T04:01:40.494Z,97616.29
2022-08-24T04:04:09.998Z,97613.79
2022-08-24T04:06:39.165Z,97617.04
2022-08-24T04:09:07.946Z,97616.94
2022-08-24T04:11:41.101Z,97616.79
2022-08-24T04:14:27.516Z,97624.02
2022-08-24T04:17:22.366Z,97625.34
2022-08-24T04:19:59.222Z,97626.52
2022-08-24T04:22:36.916Z,97629.33
2022-08-24T04:25:09.351Z,97629.48
2022-08-24T04:27:41.184Z,97638.91
2022-08-24T04:30:14.288Z,97640.52
2022-08-24T04:33:03.522Z,97642.42
2022-08-24T04:35:31.927Z,97640.88
2022-08-24T04:38:00.326Z,97636.84
2022-08-24T04:40:28.427Z,97636.33
2022-08-24T04:42:58.881Z,97640.45
2022-08-24T04:45:29.118Z,97642.94
2022-08-24T04:47:57.283Z,97638.13
2022-08-24T04:50:26.439Z,97636.47
2022-08-24T04:52:55.578Z,97638.54
2022-08-24T04:55:24.183Z,97637.39
2022-08-24T04:57:52.287Z,97633.06
2022-08-24T05:00:21.261Z,97628.10
2022-08-24T05:02:49.620Z,97630.56
2022-08-24T05:05:17.943Z,97635.77
2022-08-24T05:07:45.964Z,97634.38
2022-08-24T05:10:15.086Z,97630.55
2022-08-24T05:12:43.706Z,97627.27
2022-08-24T05:15:13.196Z,97625.11
2022-08-24T05:17:43.662Z,97624.06
2022-08-24T05:20:19.314Z,97628.75
2022-08-24T05:22:47.563Z,97632.77
2022-08-24T05:25:15.816Z,97630.60
2022-08-24T05:27:44.418Z,97628.77
2022-08-24T05:30:13.850Z,97629.67
2022-08-24T05:32:41.878Z,97629.89
2022-08-24T05:35:10.235Z,97623.20
2022-08-24T05:37:40.246Z,97626.33
2022-08-24T05:40:18.070Z,97628.77
2022-08-24T05:42:50.070Z,97630.81
2022-08-24T05:45:18.171Z,97624.34
2022-08-24T05:47:46.057Z,97620.81
2022-08-24T05:50:43.160Z,97619.36
2022-08-24T05:53:14.699Z,97620.33
2022-08-24T05:55:45.024Z,97618.31
2022-08-24T05:58:15.232Z,97618.54
2022-08-24T06:00:51.989Z,97617.85
2022-08-24T06:03:21.069Z,97611.93
2022-08-24T06:05:53.225Z,97623.15
2022-08-24T06:08:21.792Z,97630.14
2022-08-24T06:10:51.192Z,97628.84
2022-08-24T06:13:20.062Z,97625.46
2022-08-24T06:16:05.035Z,97617.92
2022-08-24T06:18:36.616Z,97620.46
2022-08-24T06:21:09.226Z,97621.79
2022-08-24T06:23:38.972Z,97623.95
2022-08-24T06:26:27.005Z,97626.83
2022-08-24T06:28:57.083Z,97634.58
2022-08-24T06:31:27.702Z,97640.48
2022-08-24T06:33:57.439Z,97641.48
2022-08-24T06:36:25.852Z,97640.74
2022-08-24T06:38:55.045Z,97641.03
2022-08-24T06:41:24.655Z,97643.17
2022-08-24T06:43:53.255Z,97645.34
2022-08-24T06:46:30.737Z,97649.14
2022-08-24T06:49:01.656Z,97653.52
2022-08-24T06:51:31.930Z,97660.27
2022-08-24T06:54:02.314Z,97664.36
2022-08-24T06:56:31.711Z,97671.25
2022-08-24T06:59:03.300Z,97675.86
2022-08-24T07:01:32.564Z,97675.70
2022-08-24T07:04:01.522Z,97679.46
2022-08-24T07:07:15.972Z,97682.05
2022-08-24T07:09:44.742Z,97680.37
2022-08-24T07:12:13.066Z,97680.67
2022-08-24T07:14:41.328Z,97683.39
2022-08-24T07:17:09.401Z,97687.65
2022-08-24T07:19:39.515Z,97691.29
2022-08-24T07:22:09.260Z,97693.64
2022-08-24T07:24:38.170Z,97688.44
2022-08-24T07:27:06.882Z,97691.42
2022-08-24T07:29:50.548Z,97692.95
2022-08-24T07:32:24.073Z,97694.96
2022-08-24T07:34:55.083Z,97697.52
2022-08-24T07:37:23.387Z,97703.82
2022-08-24T07:39:51.907Z,97703.77
2022-08-24T07:42:29.579Z,97705.59
2022-08-24T07:45:00.799Z,97708.25
2022-08-24T07:47:54.668Z,97701.38
2022-08-24T07:50:37.487Z,97703.39
2022-08-24T07:53:09.763Z,97698.55
2022-08-24T07:55:46.051Z,97706.64
2022-08-24T07:58:14.415Z,97706.79
2022-08-24T08:00:47.097Z,97704.55
2022-08-24T08:03:16.013Z,97702.83
2022-08-24T08:05:45.649Z,97705.44
2022-08-24T08:08:13.872Z,97709.21
2022-08-24T08:10:43.595Z,97706.42
2022-08-24T08:13:11.990Z,97703.04
2022-08-24T08:15:40.313Z,97704.53
2022-08-24T08:18:12.356Z,97707.40
2022-08-24T08:20:42.829Z,97718.16
2022-08-24T08:23:30.691Z,97722.38
2022-08-24T08:26:08.646Z,97723.59
2022-08-24T08:28:49.878Z,97721.83
2022-08-24T08:31:18.189Z,97717.41
2022-08-24T08:33:48.131Z,97714.71
2022-08-24T08:36:21.749Z,97712.03
2022-08-24T08:38:51.292Z,97699.92
2022-08-24T08:41:50.322Z,97689.98
2022-08-24T08:44:50.743Z,97679.85
2022-08-24T08:47:43.945Z,97683.94
2022-08-24T08:50:33.384Z,97681.13
2022-08-24T08:53:42.512Z,97671.45
2022-08-24T08:56:43.705Z,97667.31
2022-08-24T08:59:18.255Z,97668.79
2022-08-24T09:02:12.006Z,97673.52
2022-08-24T09:05:16.178Z,97678.98
2022-08-24T09:08:19.876Z,97679.29
2022-08-24T09:11:06.274Z,97675.05
2022-08-24T09:13:50.673Z,97670.35
2022-08-24T09:16:50.829Z,97665.55
2022-08-24T09:19:51.222Z,97656.47
2022-08-24T09:22:22.049Z,97649.28
2022-08-24T09:24:53.602Z,97664.09
2022-08-24T09:28:09.895Z,97673.50
2022-08-24T09:30:57.810Z,97678.89
2022-08-24T09:33:45.900Z,97683.98
2022-08-24T09:36:30.338Z,97693.39
2022-08-24T09:39:07.255Z,97693.77
2022-08-24T09:42:00.464Z,97686.31
2022-08-24T09:44:43.764Z,97678.08
2022-08-24T09:47:43.332Z,97672.64
2022-08-24T09:50:51.705Z,97674.17
2022-08-24T09:54:00.983Z,97676.20
2022-08-24T09:56:45.266Z,97682.27
2022-08-24T09:59:41.150Z,97671.27
2022-08-24T10:02:40.502Z,97666.72
2022-08-24T10:05:47.823Z,97668.17
2022-08-24T10:08:24.953Z,97664.80
2022-08-24T10:11:11.725Z,97646.89
2022-08-24T10:14:04.781Z,97636.86
2022-08-24T10:16:54.974Z,97638.16
2022-08-24T10:19:50.672Z,97639.78
2022-08-24T10:22:40.180Z,97632.45
2022-08-24T10:25:42.455Z,97621.45
2022-08-24T10:28:39.548Z,97620.67
2022-08-24T10:31:13.052Z,97625.60
2022-08-24T10:34:03.344Z,97630.33
2022-08-24T10:36:47.532Z,97630.08
2022-08-24T10:39:41.365Z,97630.49
2022-08-24T10:42:49.315Z,97626.40
2022-08-24T10:45:35.962Z,97621.00
2022-08-24T10:48:13.618Z,97623.11
2022-08-24T10:50:59.758Z,97620.52
2022-08-24T10:53:30.345Z,97626.73
2022-08-24T10:56:08.328Z,97626.19
2022-08-24T10:58:57.415Z,97617.98
2022-08-24T11:01:37.463Z,97615.05
2022-08-24T11:04:09.241Z,97619.01
2022-08-24T11:07:23.283Z,97615.77
2022-08-24T11:10:02.031Z,97618.05
2022-08-24T11:12:35.961Z,97610.71
2022-08-24T11:15:24.266Z,97607.89
2022-08-24T11:17:58.239Z,97605.05
2022-08-24T11:20:36.274Z,97604.05
2022-08-24T11:23:08.133Z,97609.75
2022-08-24T11:26:00.927Z,97607.78
2022-08-24T11:28:39.144Z,97597.33
2022-08-24T11:31:27.838Z,97596.01
2022-08-24T11:34:09.913Z,97598.01
2022-08-24T11:36:41.203Z,97596.02
2022-08-24T11:39:33.009Z,97589.63
2022-08-24T11:42:13.067Z,97588.59
2022-08-24T11:44:47.028Z,97586.77
2022-08-24T11:47:21.107Z,97580.79
2022-08-24T11:49:59.029Z,97580.06
2022-08-24T11:52:46.108Z,97580.98
2022-08-24T11:55:24.421Z,97576.80
2022-08-24T11:58:06.224Z,97577.91
2022-08-24T12:01:05.325Z,97571.90
2022-08-24T12:04:19.992Z,97572.41
2022-08-24T12:07:15.295Z,97572.30
2022-08-24T12:10:18.521Z,97570.14
2022-08-24T12:13:07.074Z,97573.41
2022-08-24T12:15:52.336Z,97566.90
2022-08-24T12:18:29.774Z,97567.62
2022-08-24T12:20:58.779Z,97567.71
2022-08-24T12:23:50.666Z,97563.11
2022-08-24T12:26:40.507Z,97559.62
2022-08-24T12:29:08.670Z,97555.64
2022-08-24T12:31:58.465Z,97555.23
2022-08-24T12:34:49.907Z,97556.02
2022-08-24T12:37:28.720Z,97555.40
2022-08-24T12:40:25.498Z,97554.59
2022-08-24T12:43:01.425Z,97554.77
2022-08-24T12:45:30.442Z,97556.48
2022-08-24T12:48:22.276Z,97554.80
2022-08-24T12:51:39.263Z,97559.44
2022-08-24T12:54:13.345Z,97555.73
2022-08-24T12:56:51.949Z,97556.63
2022-08-24T12:59:26.008Z,97557.14
2022-08-24T13:02:32.936Z,97556.25
2022-08-24T13:05:11.976Z,97559.35
2022-08-24T13:07:48.880Z,97560.10
2022-08-24T13:10:26.409Z,97554.45
2022-08-24T13:13:20.146Z,97559.73
2022-08-24T13:15:48.766Z,97560.20
2022-08-24T13:18:17.012Z,97558.09
2022-08-24T13:20:45.156Z,97557.10
2022-08-24T13:23:13.430Z,97555.97
2022-08-24T13:25:47.763Z,97557.23
2022-08-24T13:28:24.618Z,97551.86
2022-08-24T13:31:18.499Z,97548.83
2022-08-24T13:33:52.316Z,97548.70
2022-08-24T13:36:29.487Z,97546.35
2022-08-24T13:39:22.633Z,97548.67
2022-08-24T13:41:50.767Z,97547.56
2022-08-24T13:44:26.324Z,97544.75
2022-08-24T13:47:06.306Z,97547.80
2022-08-24T13:49:49.481Z,97546.84
2022-08-24T13:52:42.494Z,97548.63
2022-08-24T13:55:33.150Z,97545.88
2022-08-24T13:58:13.564Z,97543.69
2022-08-24T14:01:09.347Z,97540.13
2022-08-24T14:04:08.499Z,97541.16
2022-08-24T14:06:58.072Z,97542.70
2022-08-24T14:09:53.739Z,97544.58
2022-08-24T14:12:31.207Z,97542.58
2022-08-24T14:15:16.171Z,97543.27
2022-08-24T14:18:06.962Z,97539.46
2022-08-24T14:20:52.768Z,97535.80
2022-08-24T14:23:52.483Z,97536.51
2022-08-24T14:26:42.097Z,97538.18
2022-08-24T14:29:19.650Z,97534.70
2022-08-24T14:31:59.998Z,97533.80
2022-08-24T14:34:55.801Z,97532.88
2022-08-24T14:37:45.469Z,97534.47
2022-08-24T14:40:38.607Z,97531.83
2022-08-24T14:43:34.985Z,97530.92
2022-08-24T14:46:09.323Z,97532.98
2022-08-24T14:49:02.822Z,97528.79
2022-08-24T14:51:44.790Z,97529.40
2022-08-24T14:54:33.337Z,97528.23
2022-08-24T14:57:27.277Z,97528.80
2022-08-24T15:00:07.628Z,97528.14
2022-08-24T15:02:51.272Z,97525.78
2022-08-24T15:05:31.857Z,97525.39
2022-08-24T15:08:06.152Z,97525.80
2022-08-24T15:10:34.635Z,97522.69
2022-08-24T15:13:26.989Z,97520.76
2022-08-24T15:16:21.551Z,97521.66
2022-08-24T15:19:27.618Z,97522.16
2022-08-24T15:22:02.933Z,97519.13
2022-08-24T15:24:45.599Z,97519.39
2022-08-24T15:27:27.525Z,97517.50
2022-08-24T15:30:00.110Z,97518.80
2022-08-24T15:32:52.088Z,97515.56
2022-08-24T15:35:32.839Z,97516.66
2022-08-24T15:38:30.580Z,97515.63
2022-08-24T15:41:12.150Z,97518.60
2022-08-24T15:44:01.177Z,97521.13
2022-08-24T15:46:50.573Z,97518.71
2022-08-24T15:49:24.613Z,97515.54
2022-08-24T15:52:00.560Z,97513.25
2022-08-24T15:54:35.543Z,97516.45
2022-08-24T15:57:03.578Z,97521.41
2022-08-24T15:59:31.893Z,97516.33
2022-08-24T16:02:27.848Z,97514.58
2022-08-24T16:05:25.348Z,97517.56
2022-08-24T16:08:03.250Z,97518.52
2022-08-24T16:10:34.853Z,97516.27
2022-08-24T16:13:18.653Z,97514.30
2022-08-24T16:15:51.590Z,97515.35
2022-08-24T16:18:21.174Z,97512.23
2022-08-24T16:20:51.424Z,97517.66
2022-08-24T16:23:34.757Z,97518.66
2022-08-24T16:26:23.275Z,97522.15
2022-08-24T16:28:53.866Z,97522.52
2022-08-24T16:31:41.189Z,97523.37
2022-08-24T16:34:20.524Z,97525.39
2022-08-24T16:36:49.210Z,97528.55
2022-08-24T16:39:17.295Z,97532.08
2022-08-24T16:41:45.769Z,97529.23
2022-08-24T16:44:14.133Z,97529.73
2022-08-24T16:46:42.436Z,97531.13
2022-08-24T16:49:16.484Z,97532.41
2022-08-24T16:51:45.568Z,97534.20
2022-08-24T16:54:14.076Z,97534.44
2022-08-24T16:56:43.026Z,97536.37
2022-08-24T16:59:17.928Z,97537.59
2022-08-24T17:01:50.443Z,97541.27
2022-08-24T17:04:19.011Z,97544.11
2022-08-24T17:06:50.850Z,97547.01
2022-08-24T17:09:19.888Z,97542.91
2022-08-24T17:11:48.626Z,97549.45
2022-08-24T17:14:17.381Z,97552.45
2022-08-24T17:16:46.119Z,97552.18
2022-08-24T17:19:19.036Z,97554.98
2022-08-24T17:21:48.757Z,97556.93
2022-08-24T17:24:21.131Z,97556.95
2022-08-24T17:26:53.609Z,97560.38
2022-08-24T17:29:22.703Z,97562.52
2022-08-24T17:31:51.808Z,97565.20
2022-08-24T17:34:22.214Z,97566.54
2022-08-24T17:36:53.677Z,97574.35
2022-08-24T17:39:24.116Z,97575.42
2022-08-24T17:41:54.641Z,97581.37
2022-08-24T17:44:26.995Z,97586.25
2022-08-24T17:46:58.963Z,97594.16
2022-08-24T17:49:28.861Z,97604.86
2022-08-24T17:51:58.626Z,97606.38
2022-08-24T17:54:29.985Z,97609.30
2022-08-24T17:56:58.699Z,97610.52
2022-08-24T17:59:33.378Z,97615.55
2022-08-24T18:02:09.383Z,97614.92
2022-08-24T18:04:38.482Z,97617.39
2022-08-24T18:07:12.462Z,97622.30
2022-08-24T18:09:48.407Z,97623.72
2022-08-24T18:12:19.973Z,97626.15
2022-08-24T18:14:49.260Z,97625.41
2022-08-24T18:17:22.904Z,97628.66
2022-08-24T18:19:55.440Z,97632.98
2022-08-24T18:22:23.590Z,97636.05
2022-08-24T18:24:51.614Z,97637.98
2022-08-24T18:27:27.637Z,97639.63
2022-08-24T18:30:05.330Z,97640.18
2022-08-24T18:32:39.069Z,97639.52
2022-08-24T18:35:08.607Z,97644.02
2022-08-24T18:37:37.690Z,97648.02
2022-08-24T18:40:06.851Z,97653.97
2022-08-24T18:42:35.291Z,97656.86
2022-08-24T18:45:04.990Z,97656.29
2022-08-24T18:47:33.419Z,97656.58
2022-08-24T18:50:01.493Z,97652.91
2022-08-24T18:52:29.489Z,97654.79
2022-08-24T18:54:57.751Z,97655.13
2022-08-24T18:57:26.290Z,97658.75
2022-08-24T18:59:54.563Z,97661.60
2022-08-24T19:02:36.135Z,97663.81
2022-08-24T19:05:10.317Z,97662.63
2022-08-24T19:07:45.123Z,97661.82
2022-08-24T19:10:17.501Z,97661.59
2022-08-24T19:12:50.324Z,97661.14
2022-08-24T19:15:32.109Z,97658.33
2022-08-24T19:18:11.585Z,97662.11
2022-08-24T19:20:47.753Z,97665.30
2022-08-24T19:23:27.533Z,97673.08
2022-08-24T19:25:57.167Z,97676.86
2022-08-24T19:28:27.250Z,97680.10
2022-08-24T19:31:01.273Z,97680.03
2022-08-24T19:33:36.797Z,97683.08
2022-08-24T19:36:05.512Z,97681.35
2022-08-24T19:38:34.050Z,97681.52
2022-08-24T19:41:10.718Z,97683.61
2022-08-24T19:44:01.882Z,97682.67
2022-08-24T19:46:30.029Z,97683.22
2022-08-24T19:48:58.255Z,97685.67
2022-08-24T19:51:26.920Z,97687.89
2022-08-24T19:53:54.988Z,97690.95
2022-08-24T19:56:23.851Z,97691.06
2022-08-24T19:58:58.423Z,97692.77
2022-08-24T20:01:29.647Z,97691.95
2022-08-24T20:03:57.958Z,97694.18
2022-08-24T20:06:26.992Z,97699.23
2022-08-24T20:08:55.108Z,97703.52
2022-08-24T20:11:25.125Z,97710.96
2022-08-24T20:13:54.878Z,97711.02
2022-08-24T20:16:26.635Z,97713.64
2022-08-24T20:18:54.927Z,97716.80
2022-08-24T20:21:27.060Z,97717.84
2022-08-24T20:24:00.720Z,97714.70
2022-08-24T20:26:32.877Z,97714.19
2022-08-24T20:29:01.156Z,97717.89
2022-08-24T20:31:29.662Z,97719.90
2022-08-24T20:33:58.096Z,97717.34
2022-08-24T20:36:38.039Z,97714.81
2022-08-24T20:39:10.845Z,97712.35
2022-08-24T20:41:40.324Z,97716.94
2022-08-24T20:44:09.462Z,97720.06
2022-08-24T20:46:40.143Z,97717.90
2022-08-24T20:49:15.354Z,97715.22
2022-08-24T20:51:45.233Z,97716.88
2022-08-24T20:54:14.960Z,97719.56
2022-08-24T20:56:45.982Z,97721.19
2022-08-24T20:59:15.197Z,97722.34
2022-08-24T21:01:43.174Z,97727.20
2022-08-24T21:04:11.513Z,97729.98
2022-08-24T21:06:41.861Z,97729.03
2022-08-24T21:09:14.304Z,97731.30
2022-08-24T21:11:43.722Z,97731.23
2022-08-24T21:14:13.028Z,97732.55
2022-08-24T21:16:43.566Z,97732.86
2022-08-24T21:19:16.335Z,97733.77
2022-08-24T21:21:47.179Z,97729.52
2022-08-24T21:24:16.251Z,97729.73
2022-08-24T21:26:44.653Z,97734.45
2022-08-24T21:29:12.725Z,97736.67
2022-08-24T21:31:40.871Z,97735.38
2022-08-24T21:34:28.012Z,97736.56
2022-08-24T21:36:56.029Z,97734.27
2022-08-24T21:39:24.037Z,97731.88
2022-08-24T21:41:53.549Z,97730.48
2022-08-24T21:44:22.068Z,97731.54
2022-08-24T21:46:51.892Z,97729.71
2022-08-24T21:49:20.702Z,97729.14
2022-08-24T21:51:48.733Z,97729.38
2022-08-24T21:54:17.300Z,97731.17
2022-08-24T21:56:45.918Z,97731.02
2022-08-24T21:59:14.110Z,97728.05
2022-08-24T22:01:43.813Z,97725.80
2022-08-24T22:04:13.419Z,97724.48
2022-08-24T22:06:41.513Z,97724.42
2022-08-24T22:09:09.506Z,97728.54
2022-08-24T22:11:37.581Z,97730.58
2022-08-24T22:14:05.961Z,97734.20
2022-08-24T22:16:36.904Z,97733.73
2022-08-24T22:19:05.921Z,97732.41
2022-08-24T22:21:36.082Z,97733.44
2022-08-24T22:24:05.059Z,97729.44
2022-08-24T22:26:34.790Z,97725.66
2022-08-24T22:29:05.161Z,97724.80
2022-08-24T22:31:37.023Z,97723.70
2022-08-24T22:34:09.731Z,97723.84
2022-08-24T22:36:38.467Z,97721.89
2022-08-24T22:39:09.283Z,97720.10
2022-08-24T22:41:37.851Z,97721.98
2022-08-24T22:44:19.161Z,97720.55
2022-08-24T22:47:01.528Z,97723.67
2022-08-24T22:49:35.951Z,97719.55
2022-08-24T22:52:06.058Z,97719.95
2022-08-24T22:54:34.999Z,97716.99
2022-08-24T22:57:03.843Z,97709.79
2022-08-24T22:59:35.796Z,97709.30
2022-08-24T23:02:11.372Z,97707.24
2022-08-24T23:04:43.018Z,97705.41
2022-08-24T23:07:11.934Z,97703.24
2022-08-24T23:09:44.825Z,97701.23
2022-08-24T23:12:18.394Z,97697.60
2022-08-24T23:14:46.559Z,97694.48
2022-08-24T23:17:14.410Z,97695.13
2022-08-24T23:20:00.718Z,97696.10
2022-08-24T23:22:32.555Z,97693.71
2022-08-24T23:25:01.310Z,97692.22
2022-08-24T23:27:32.782Z,97691.01
2022-08-24T23:30:10.390Z,97691.97
2022-08-24T23:32:38.691Z,97688.92
2022-08-24T23:35:07.196Z,97689.96
2022-08-24T23:37:35.254Z,97690.52
2022-08-24T23:40:04.782Z,97688.83
2022-08-24T23:42:33.074Z,97690.96
2022-08-24T23:45:01.108Z,97690.90
2022-08-24T23:47:29.402Z,97688.88
2022-08-24T23:49:57.495Z,97688.49
2022-08-24T23:52:26.891Z,97686.63
2022-08-24T23:55:09.865Z,97689.72
2022-08-24T23:57:46.340Z,97688.77
